Albury
Weather
Information

and Archive.
Albury Local Internet Skycam This service provided and funded by Albury Local Internet

Help keep our weatherstation running:

Lavington Weatherstation live data - Conditions of Use

Last updated on 02-Mar-2021 at 23:56:04
Temperature
  Currently 14.7 degrees C
  Apparent Temperature ("Wind Chill") is 14.2 degrees C
  Today has ranged from 10.4 at 06:31 to 24.2 at 16:28
  Yesterday ranged from 15.2 at 07:17 to 28.7 at 15:52
Wind
  Now:    6.2kmh, gusting to   8.3kmh from 160 degrees (SSE)
  Hour:   3.7kmh, gusting to   9.7kmh
Rainfall
   0.0mm Midnight to Midnight (ie, yesterday)
   0.0mm Since Midnight (ie, so far today)
   0.0mm 9am yesterday to 9am today
   0.0mm Total this month
Misc items
  Relative humidity is 86%
  Dewpoint is 12.4 deg C
  Estimated Cloudbase is 1000 feet
  Barometric Pressure is 1014.0 mbar
  Dust: PM2.5 1.6ug/m3 PM10 9.5ug/m3   AQI 8 (Good)
Top Solar flares in the last 24 hours

Last 24 hours Temperature Graph (click graph for history)
temperature

Last 24 hours Dynamic Wind display (click image for 4-hour image):
Wind Rose

Current Yarrawonga Weather Radar and Infrared Satellite Images from the BOM.

Hourly summaries in the tables below are cumulative and peak values
for the preceding hour, and instantaneous values at the hour.
So far today, 02-Mar-2021
Time   Barom.  Wind + Gust    Direction   RH   Rain    Temp.  Minimum    Maximum
01:00  1013.0  12.8  31.1kmh  211 (SSW)   92%  0.0mm   15.3  15.2@00:48 16.6@00:00
02:00  1012.0  11.9  27.3kmh  178 ( S )   94%  0.0mm   14.2  14.3@01:47 15.3@01:00
03:00  1012.0   9.4  23.5kmh  188 ( S )   94%  0.0mm   13.7  13.6@02:51 14.4@02:09
04:00  1012.0   7.1  20.3kmh  233 ( SW)   96%  0.0mm   12.6  12.2@03:45 13.7@03:00
05:00  1012.0   7.3  18.5kmh  222 ( SW)   98%  0.0mm   11.5  11.4@04:55 12.6@04:00
06:00  1012.0   4.3  13.0kmh  290 (WNW)   98%  0.0mm   11.1  10.5@05:16 11.5@05:00
07:00  1013.0   5.2  11.0kmh  299 (WNW)   99%  0.0mm   10.5  10.4@06:31 11.1@06:00
08:00  1013.0   1.7   8.4kmh  233 ( SW)   96%  0.0mm   11.5  10.4@07:01 11.5@07:49
09:00  1014.0   2.2  11.7kmh  150 (SSE)   93%  0.0mm   13.8  11.5@08:00 13.9@08:59
10:00  1014.0   9.5  19.8kmh  173 ( S )   90%  0.0mm   15.4  13.6@09:01 16.4@09:49
11:00  1015.0   8.6  22.9kmh  177 ( S )   85%  0.0mm   17.4  15.4@10:00 17.6@10:42
12:00  1015.0   8.5  22.9kmh  164 (SSE)   75%  0.0mm   19.0  17.2@11:31 18.9@11:46
13:00  1014.0   5.4  19.4kmh  109 (ESE)   70%  0.0mm   20.6  18.4@12:19 21.6@12:56
14:00  1014.0   7.4  23.6kmh  165 (SSE)   65%  0.0mm   21.9  19.7@13:15 22.0@13:57
15:00  1013.0   7.9  20.5kmh  179 ( S )   61%  0.0mm   22.1  21.3@14:04 22.6@14:54
16:00  1013.0   8.2  26.3kmh  184 ( S )   55%  0.0mm   22.6  21.6@15:08 24.1@15:51
17:00  1013.0   7.4  23.8kmh  180 ( S )   53%  0.0mm   23.5  22.6@16:00 24.2@16:28
18:00  1013.0   8.0  25.8kmh  185 ( S )   56%  0.0mm   22.9  22.5@17:25 23.9@17:14
19:00  1013.0  10.0  22.7kmh  260 ( W )   62%  0.0mm   21.2  21.2@18:59 23.0@18:01
20:00  1013.0   9.9  24.5kmh  219 ( SW)   72%  0.0mm   18.7  18.7@19:56 21.2@19:00
21:00  1014.0   9.5  24.4kmh  261 ( W )   77%  0.0mm   17.2  17.2@20:58 18.7@20:00
22:00  1014.0   8.3  18.3kmh  216 ( SW)   81%  0.0mm   15.9  15.9@21:58 17.2@21:00
23:00  1014.0   5.6  13.4kmh  248 (WSW)   87%  0.0mm   14.4  14.4@22:57 15.9@22:00
23:56  1014.0   3.7   9.7kmh  165 (SSE)   86%  0.0mm   14.7  14.4@23:00 15.4@23:13


Summary for yesterday, 01-Mar-2021
Time   Barom.  Wind + Gust    Direction   RH   Rain    Temp.  Minimum    Maximum
02:00  1010.0   3.0   9.3kmh  178 ( S )   98%  0.0mm   18.8  18.3@01:37 19.4@01:09
03:00  1009.0   2.4   9.4kmh  109 (ESE)  100%  0.0mm   18.0  18.0@02:52 18.8@02:00
04:00  1009.0   3.8   9.1kmh  152 (SSE)  100%  0.0mm   17.1  17.2@03:52 18.3@03:06
05:00  1009.0   2.4  10.1kmh  141 ( SE)  100%  0.0mm   17.0  16.0@04:42 17.1@04:00
06:00  1010.0   2.8   9.3kmh  111 (ESE)  100%  0.0mm   16.2  15.6@05:50 17.0@05:00
07:00  1009.0   4.4  10.0kmh   38 ( NE)   94%  0.0mm   17.6  15.9@06:01 17.8@06:50
08:00  1009.0   2.5  10.2kmh  104 (ESE)  100%  0.0mm   16.5  15.2@07:17 17.6@07:00
09:00  1010.0   1.8   7.9kmh  181 ( S )  100%  0.0mm   19.0  16.5@08:00 19.1@08:57
10:00  1010.0   7.2  22.5kmh  322 ( NW)   80%  0.0mm   23.9  19.0@09:00 23.7@09:59
11:00  1010.0   8.7  20.7kmh  341 (NNW)   72%  0.0mm   25.7  23.8@10:09 25.8@10:42
12:00  1010.0  10.7  28.6kmh  267 ( W )   70%  0.0mm   26.3  25.6@11:01 26.6@11:20
13:00  1010.0  13.5  34.2kmh  207 (SSW)   71%  0.0mm   26.7  26.1@12:01 27.4@12:31
14:00  1010.0  14.2  34.3kmh  221 ( SW)   66%  0.0mm   27.3  26.5@13:21 28.1@13:33
15:00  1009.0  17.0  37.9kmh  254 (WSW)   57%  0.0mm   27.7  26.7@14:02 28.1@14:22
16:00  1009.0  15.3  38.1kmh  243 (WSW)   56%  0.0mm   27.8  27.4@15:16 28.7@15:52
17:00  1009.0  17.9  43.7kmh  294 (WNW)   60%  0.0mm   26.9  26.7@16:43 28.2@16:02
18:00  1010.0  16.6  44.4kmh  239 (WSW)   66%  0.0mm   25.3  25.3@17:59 27.0@17:06
19:00  1010.0  18.9  42.9kmh  224 ( SW)   68%  0.0mm   23.8  23.9@18:44 25.3@18:00
20:00  1011.0  17.5  43.4kmh  219 ( SW)   75%  0.0mm   21.5  21.6@19:49 23.8@19:00
21:00  1012.0  15.7  39.6kmh  201 (SSW)   80%  0.0mm   20.2  20.2@20:58 21.5@20:00
22:00  1012.0  15.9  34.8kmh  169 ( S )   83%  0.0mm   18.9  19.0@21:59 20.2@21:00
23:00  1013.0  13.2  33.9kmh  202 (SSW)   79%  0.0mm   17.6  17.8@22:49 18.9@22:00
00:00  1012.0  12.8  31.2kmh  270 ( W )   84%  0.0mm   16.6  16.4@23:50 17.9@23:04